createdAt,value
2018-11-21T00:00:10.922Z,30.3
2018-11-21T00:01:00.584Z,30.2
2018-11-21T00:01:51.844Z,30.1
2018-11-21T00:02:40.591Z,29.9
2018-11-21T00:03:31.416Z,29.8
2018-11-21T00:04:21.875Z,29.7
2018-11-21T00:05:10.590Z,29.6
2018-11-21T00:06:01.006Z,29.4
2018-11-21T00:06:51.929Z,29.3
2018-11-21T00:25:08.588Z,31.1
2018-11-21T00:25:59.150Z,30.9
2018-11-21T00:26:49.927Z,30.8
2018-11-21T00:27:38.321Z,30.7
2018-11-21T00:28:28.005Z,30.6
2018-11-21T00:29:18.349Z,30.4
2018-11-21T00:30:09.712Z,30.3
2018-11-21T00:30:59.662Z,30.1
2018-11-21T00:31:49.167Z,30
2018-11-21T00:32:37.842Z,29.9
2018-11-21T00:33:28.527Z,29.8
2018-11-21T00:34:19.576Z,29.6
2018-11-21T00:35:11.075Z,29.5
2018-11-21T00:35:59.089Z,29.4
2018-11-21T00:36:49.956Z,29.3
2018-11-21T00:37:39.097Z,29.2
2018-11-21T00:38:30.144Z,27.9
2018-11-21T00:39:18.832Z,27.8
2018-11-21T00:40:10.577Z,27.9
2018-11-21T00:40:59.803Z,27.9
2018-11-21T00:41:50.194Z,28.2
2018-11-21T00:42:46.350Z,28.4
2018-11-21T00:43:29.916Z,28.7
2018-11-21T00:44:20.234Z,29
2018-11-21T00:45:09.833Z,29.4
2018-11-21T00:46:00.503Z,29.6
2018-11-21T00:46:49.208Z,29.9
2018-11-21T00:47:40.632Z,30.1
2018-11-21T00:48:30.443Z,30.3
2018-11-21T00:49:19.490Z,30.6
2018-11-21T00:50:10.521Z,30.7
2018-11-21T00:51:00.146Z,30.9
2018-11-21T00:51:50.363Z,31.1
2018-11-21T00:52:39.756Z,31.2
2018-11-21T00:53:30.320Z,31.3
2018-11-21T00:54:20.308Z,31.2
2018-11-21T00:55:10.523Z,31.1
2018-11-21T00:55:59.966Z,30.9
2018-11-21T00:56:50.775Z,30.8
2018-11-21T00:57:40.318Z,30.7
2018-11-21T00:58:31.570Z,30.6
2018-11-21T00:59:20.753Z,30.4
2018-11-21T01:00:10.978Z,30.3
2018-11-21T01:01:01.165Z,30.1
2018-11-21T01:01:51.178Z,30
2018-11-21T01:02:41.063Z,29.6
2018-11-21T01:03:30.493Z,28.4
2018-11-21T01:04:22.102Z,27.9
2018-11-21T01:05:12.112Z,27.6
2018-11-21T01:06:01.920Z,27.4
2018-11-21T01:06:51.465Z,27.3
2018-11-21T01:07:42.375Z,27.1
2018-11-21T01:08:32.199Z,26.9
2018-11-21T01:09:21.912Z,26.8
2018-11-21T01:10:11.432Z,26.8
2018-11-21T01:11:01.745Z,26.6
2018-11-21T01:11:52.224Z,26.5
2018-11-21T01:12:42.087Z,26.4
2018-11-21T01:13:32.827Z,26.7
2018-11-21T01:14:22.788Z,27
2018-11-21T01:15:13.457Z,27.3
2018-11-21T01:16:02.759Z,27.7
2018-11-21T01:16:52.369Z,28
2018-11-21T01:17:43.551Z,28.3
2018-11-21T01:18:33.692Z,28.7
2018-11-21T01:19:21.871Z,29
2018-11-21T01:20:13.328Z,29.3
2018-11-21T01:21:03.328Z,29.6
2018-11-21T01:21:51.954Z,29.8
2018-11-21T01:22:42.694Z,30.1
2018-11-21T01:23:34.059Z,30.3
2018-11-21T01:24:22.928Z,30.5
2018-11-21T01:25:13.413Z,30.7
2018-11-21T01:26:02.544Z,30.9
2018-11-21T01:26:53.797Z,31
2018-11-21T01:27:44.099Z,31.2
2018-11-21T01:28:32.503Z,31.3
2018-11-21T01:29:23.478Z,31.3
2018-11-21T01:30:12.149Z,31.1
2018-11-21T01:31:02.151Z,31
2018-11-21T01:31:54.006Z,30.9
2018-11-21T01:32:43.935Z,30.8
2018-11-21T01:33:33.858Z,30.6
2018-11-21T01:34:24.070Z,30.5
2018-11-21T01:35:12.880Z,30.3
2018-11-21T01:36:03.548Z,30.2
2018-11-21T01:36:53.883Z,30.1
2018-11-21T01:37:43.655Z,29.9
2018-11-21T01:38:33.604Z,29.8
2018-11-21T01:39:23.715Z,29.7
2018-11-21T01:40:13.975Z,29.6
2018-11-21T01:41:03.063Z,29.4
2018-11-21T01:41:53.965Z,29.3
2018-11-21T01:42:45.367Z,29.2
2018-11-21T01:43:33.698Z,27.9
2018-11-21T01:44:24.120Z,27.8
2018-11-21T01:45:13.812Z,27.9
2018-11-21T01:46:03.897Z,27.9
2018-11-21T01:46:54.899Z,28.2
2018-11-21T01:47:45.157Z,28.4
2018-11-21T01:48:34.542Z,28.7
2018-11-21T01:49:25.269Z,29
2018-11-21T01:50:15.584Z,29.3
2018-11-21T01:51:05.050Z,29.6
2018-11-21T01:51:55.132Z,29.8
2018-11-21T01:52:46.520Z,30.1
2018-11-21T01:53:36.679Z,30.3
2018-11-21T01:54:23.950Z,30.5
2018-11-21T01:55:15.669Z,30.7
2018-11-21T01:56:05.669Z,30.9
2018-11-21T01:56:56.590Z,31
2018-11-21T01:57:44.770Z,31.2
2018-11-21T01:58:35.001Z,31.3
2018-11-21T01:59:25.957Z,31.2
2018-11-21T02:00:14.964Z,31.1
2018-11-21T02:01:06.018Z,30.9
2018-11-21T02:01:56.104Z,30.8
2018-11-21T02:02:46.814Z,30.8
2018-11-21T02:03:37.058Z,30.6
2018-11-21T02:04:24.486Z,30.4
2018-11-21T02:05:15.786Z,30.3
2018-11-21T02:06:06.217Z,30.2
2018-11-21T02:06:56.056Z,30
2018-11-21T02:07:45.741Z,29.9
2018-11-21T02:08:36.179Z,29.8
2018-11-21T02:09:27.121Z,29.6
2018-11-21T02:10:15.733Z,29.5
2018-11-21T02:11:05.329Z,29.4
2018-11-21T02:11:55.583Z,29.3
2018-11-21T02:12:46.443Z,29.1
2018-11-21T02:14:26.720Z,27.9
2018-11-21T02:16:06.957Z,27.9
2018-11-21T02:16:57.940Z,28.3
2018-11-21T02:17:47.740Z,28.5
2018-11-21T02:18:36.543Z,28.8
2018-11-21T02:19:26.545Z,29.1
2018-11-21T02:20:16.353Z,29.4
2018-11-21T02:21:06.895Z,29.7
2018-11-21T02:21:57.971Z,29.9
2018-11-21T02:22:47.593Z,30.1
2018-11-21T02:23:38.205Z,30.4
2018-11-21T02:24:27.711Z,30.6
2018-11-21T02:25:18.325Z,30.7
2018-11-21T02:26:06.510Z,30.9
2018-11-21T02:26:57.552Z,31.1
2018-11-21T02:27:47.978Z,31.3
2018-11-21T02:28:36.522Z,31.3
2018-11-21T02:29:27.320Z,31.2
2018-11-21T02:30:17.092Z,31.1
2018-11-21T02:31:07.627Z,30.9
2018-11-21T02:31:58.329Z,30.8
2018-11-21T02:32:48.200Z,30.6
2018-11-21T02:33:38.495Z,30.5
2018-11-21T02:34:27.922Z,30.4
2018-11-21T02:35:18.257Z,30.2
2018-11-21T02:36:07.937Z,30.1
2018-11-21T02:36:58.237Z,30
2018-11-21T02:37:48.077Z,29.8
2018-11-21T02:38:39.322Z,29.7
2018-11-21T02:39:28.967Z,29.6
2018-11-21T02:40:18.475Z,29.5
2018-11-21T02:41:08.558Z,29.4
2018-11-21T02:41:58.711Z,29.3
2018-11-21T02:42:48.369Z,28.4
2018-11-21T02:43:38.819Z,27.7
2018-11-21T02:44:28.741Z,27.9
2018-11-21T02:46:07.796Z,28
2018-11-21T02:46:59.029Z,28.3
2018-11-21T02:47:48.911Z,28.6
2018-11-21T02:48:38.863Z,28.9
2018-11-21T02:49:29.507Z,29.2
2018-11-21T02:50:19.483Z,29.4
2018-11-21T02:51:09.193Z,29.8
2018-11-21T02:51:59.094Z,29.9
2018-11-21T02:52:49.713Z,30.2
2018-11-21T02:53:39.825Z,30.4
2018-11-21T02:54:29.438Z,30.6
2018-11-21T02:55:19.303Z,30.8
2018-11-21T02:56:09.691Z,30.9
2018-11-21T02:57:00.264Z,31.1
2018-11-21T02:57:50.041Z,31.3
2018-11-21T02:58:39.589Z,31.3
2018-11-21T02:59:29.320Z,31.1
2018-11-21T03:00:19.045Z,31
2018-11-21T03:01:09.257Z,30.9
2018-11-21T03:01:59.257Z,30.8
2018-11-21T03:02:50.415Z,30.6
2018-11-21T03:03:40.525Z,30.4
2018-11-21T03:04:31.119Z,30.3
2018-11-21T03:05:20.327Z,30.2
2018-11-21T03:06:10.888Z,30.1
2018-11-21T03:06:59.213Z,29.9
2018-11-21T03:07:50.260Z,29.8
2018-11-21T03:08:40.055Z,29.7
2018-11-21T03:09:30.754Z,29.6
2018-11-21T03:10:20.305Z,29.4
2018-11-21T03:11:10.952Z,29.3
2018-11-21T03:12:00.857Z,29.2
2018-11-21T03:12:50.272Z,28.3
2018-11-21T03:13:40.329Z,27.7
2018-11-21T03:14:30.797Z,27.9
2018-11-21T03:16:10.180Z,28.1
2018-11-21T03:17:01.722Z,28.3
2018-11-21T03:17:50.372Z,28.6
2018-11-21T03:18:40.939Z,28.9
2018-11-21T03:19:31.676Z,29.2
2018-11-21T03:20:21.591Z,29.4
2018-11-21T03:21:11.123Z,29.7
2018-11-21T03:22:01.514Z,29.9
2018-11-21T03:22:51.284Z,30.2
2018-11-21T03:23:41.569Z,30.4
2018-11-21T03:24:31.624Z,30.6
2018-11-21T03:25:20.572Z,30.8
2018-11-21T03:26:11.726Z,30.9
2018-11-21T03:27:00.866Z,31.1
2018-11-21T03:27:51.939Z,31.3
2018-11-21T03:28:41.317Z,31.3
2018-11-21T03:29:31.386Z,31.1
2018-11-21T03:30:22.871Z,31.1
2018-11-21T03:31:12.069Z,30.9
2018-11-21T03:32:02.452Z,30.8
2018-11-21T03:32:51.889Z,30.6
2018-11-21T03:33:42.840Z,30.5
2018-11-21T03:34:31.748Z,30.4
2018-11-21T03:35:21.948Z,30.3
2018-11-21T03:36:11.730Z,30.1
2018-11-21T03:37:02.097Z,29.9
2018-11-21T03:37:53.183Z,29.8
2018-11-21T03:38:42.818Z,29.7
2018-11-21T03:39:31.907Z,29.6
2018-11-21T03:40:22.735Z,29.4
2018-11-21T03:41:12.756Z,29.4
2018-11-21T03:42:02.613Z,29.3
2018-11-21T03:42:52.622Z,28.6
2018-11-21T03:43:43.478Z,27.7
2018-11-21T03:46:12.307Z,27.9
2018-11-21T03:47:02.932Z,28.3
2018-11-21T03:47:53.384Z,28.6
2018-11-21T03:48:43.831Z,28.8
2018-11-21T03:49:33.395Z,29.1
2018-11-21T03:50:23.803Z,29.4
2018-11-21T03:51:13.090Z,29.7
2018-11-21T03:52:03.607Z,29.9
2018-11-21T03:52:53.381Z,30.1
2018-11-21T03:53:44.029Z,30.3
2018-11-21T03:54:32.375Z,30.5
2018-11-21T03:55:22.264Z,30.7
2018-11-21T03:56:12.287Z,30.8
2018-11-21T03:57:03.720Z,31
2018-11-21T03:57:53.489Z,31.2
2018-11-21T03:58:44.071Z,31.3
2018-11-21T03:59:32.641Z,31.2
2018-11-21T04:00:23.211Z,31.1
2018-11-21T04:01:13.714Z,31
2018-11-21T04:02:03.331Z,30.9
2018-11-21T04:02:54.353Z,30.8
2018-11-21T04:03:43.724Z,30.6
2018-11-21T04:04:33.957Z,30.4
2018-11-21T04:05:23.466Z,30.3
2018-11-21T04:06:14.313Z,30.2
2018-11-21T04:07:03.541Z,30.1
2018-11-21T04:07:54.506Z,29.9
2018-11-21T04:08:50.188Z,29.8
2018-11-21T04:09:34.216Z,29.6
2018-11-21T04:10:24.634Z,29.6
2018-11-21T04:11:13.856Z,29.4
2018-11-21T04:12:04.111Z,29.3
2018-11-21T04:12:55.425Z,29.2
2018-11-21T04:13:44.706Z,28.1
2018-11-21T04:14:35.387Z,27.7
2018-11-21T04:15:24.491Z,27.9
2018-11-21T04:16:14.636Z,27.9
2018-11-21T04:17:04.990Z,28.1
2018-11-21T04:17:55.154Z,28.4
2018-11-21T04:18:45.165Z,28.7
2018-11-21T04:19:34.660Z,28.9
2018-11-21T04:20:25.578Z,29.3
2018-11-21T04:21:16.385Z,29.5
2018-11-21T04:22:06.090Z,29.8
2018-11-21T04:22:55.185Z,30
2018-11-21T04:23:46.000Z,30.3
2018-11-21T04:24:36.377Z,30.4
2018-11-21T04:25:27.305Z,30.6
2018-11-21T04:26:15.278Z,30.8
2018-11-21T04:27:05.608Z,30.9
2018-11-21T04:27:56.639Z,31.1
2018-11-21T04:28:45.895Z,31.3
2018-11-21T04:29:35.644Z,31.3
2018-11-21T04:30:25.969Z,31.1
2018-11-21T04:31:15.526Z,31
2018-11-21T04:32:06.306Z,30.9
2018-11-21T04:32:55.942Z,30.8
2018-11-21T04:33:46.340Z,30.6
2018-11-21T04:34:36.661Z,30.5
2018-11-21T04:35:26.950Z,30.3
2018-11-21T04:36:15.893Z,30.2
2018-11-21T04:54:22.753Z,30.3
2018-11-21T04:55:12.638Z,30.4
2018-11-21T04:56:02.981Z,30.6
2018-11-21T04:56:51.904Z,30.8
2018-11-21T04:57:42.198Z,31
2018-11-21T04:58:33.613Z,31.1
2018-11-21T04:59:22.927Z,31.3
2018-11-21T05:00:11.792Z,31.3
2018-11-21T05:01:01.410Z,31.2
2018-11-21T05:01:53.520Z,31.1
2018-11-21T05:02:43.178Z,30.9
2018-11-21T05:03:33.197Z,30.8
2018-11-21T05:04:22.800Z,30.6
2018-11-21T05:05:12.003Z,30.5
2018-11-21T05:06:02.231Z,30.4
2018-11-21T05:06:52.435Z,30.3
2018-11-21T05:07:43.293Z,30.1
2018-11-21T05:08:32.413Z,30
2018-11-21T05:09:23.252Z,29.8
2018-11-21T05:10:15.093Z,29.8
2018-11-21T05:11:03.342Z,29.6
2018-11-21T05:11:53.542Z,29.4
2018-11-21T05:12:42.523Z,29.4
2018-11-21T05:13:33.654Z,29.3
2018-11-21T05:14:24.432Z,28.4
2018-11-21T05:15:13.499Z,27.6
2018-11-21T05:16:02.787Z,27.8
2018-11-21T05:16:53.602Z,27.6
2018-11-21T05:17:43.368Z,27.9
2018-11-21T05:18:33.569Z,28.2
2018-11-21T05:19:23.991Z,28.5
2018-11-21T05:20:13.779Z,28.8
2018-11-21T05:21:04.455Z,29.1
2018-11-21T05:21:53.641Z,29.4
2018-11-21T05:22:43.686Z,29.6
2018-11-21T05:23:34.463Z,29.8
2018-11-21T05:24:23.429Z,30.1
2018-11-21T05:25:15.348Z,30.3
2018-11-21T05:26:04.651Z,30.4
2018-11-21T05:26:54.721Z,30.6
2018-11-21T05:27:44.226Z,30.8
2018-11-21T05:28:34.256Z,30.9
2018-11-21T05:29:24.466Z,31.1
2018-11-21T05:30:14.092Z,31.2
2018-11-21T05:31:04.099Z,31.3
2018-11-21T05:31:55.196Z,31.2
2018-11-21T05:32:44.578Z,31.1
2018-11-21T05:33:34.496Z,30.9
2018-11-21T05:34:24.853Z,30.8
2018-11-21T05:35:15.843Z,30.7
2018-11-21T05:36:05.041Z,30.5
2018-11-21T05:36:55.338Z,30.4
2018-11-21T05:37:44.993Z,30.3
2018-11-21T05:38:35.298Z,30.1
2018-11-21T05:39:24.355Z,30
2018-11-21T05:40:15.346Z,29.9
2018-11-21T05:41:04.320Z,29.8
2018-11-21T05:41:55.557Z,29.6
2018-11-21T05:42:46.023Z,29.5
2018-11-21T05:43:35.242Z,29.4
2018-11-21T05:45:15.936Z,29.1
2018-11-21T05:46:59.467Z,27.6
2018-11-21T05:47:45.237Z,27.6
2018-11-21T05:48:35.577Z,27.7
2018-11-21T05:49:25.705Z,28
2018-11-21T05:50:16.547Z,28.3
2018-11-21T05:51:06.229Z,28.6
2018-11-21T05:51:56.875Z,28.9
2018-11-21T05:52:47.429Z,29.2
2018-11-21T05:53:35.452Z,29.4
2018-11-21T05:54:25.090Z,29.7
2018-11-21T05:55:16.930Z,29.9
2018-11-21T05:56:07.287Z,30.1
2018-11-21T05:56:56.079Z,30.3
2018-11-21T05:57:47.387Z,30.5
2018-11-21T05:58:36.567Z,30.6
2018-11-21T05:59:26.684Z,30.8
2018-11-21T06:00:17.116Z,30.9
2018-11-21T06:01:07.071Z,31.1
2018-11-21T06:01:58.004Z,31.2
2018-11-21T06:02:47.454Z,31.3
2018-11-21T06:03:37.417Z,31.2
2018-11-21T06:04:26.669Z,31.1
2018-11-21T06:05:16.814Z,30.9
2018-11-21T06:06:12.678Z,30.8
2018-11-21T06:06:57.379Z,30.6
2018-11-21T06:07:46.994Z,30.5
2018-11-21T06:08:37.951Z,30.4
2018-11-21T06:09:29.180Z,30.3
2018-11-21T06:10:16.564Z,30.1
2018-11-21T06:11:08.204Z,29.9
2018-11-21T06:12:04.796Z,29.8
2018-11-21T06:12:48.418Z,29.7
2018-11-21T06:13:38.488Z,29.6
2018-11-21T06:14:25.631Z,29.4
2018-11-21T06:15:17.311Z,29.4
2018-11-21T06:16:09.061Z,29.3
2018-11-21T06:16:57.891Z,28.3
2018-11-21T06:17:55.711Z,27.6
2018-11-21T06:18:36.801Z,27.8
2018-11-21T06:19:29.460Z,27.7
2018-11-21T06:20:18.223Z,27.9
2018-11-21T06:21:09.055Z,28.3
2018-11-21T06:21:58.311Z,28.5
2018-11-21T06:22:48.413Z,28.8
2018-11-21T06:23:38.310Z,29.1
2018-11-21T06:24:28.498Z,29.4
2018-11-21T06:25:18.805Z,29.6
2018-11-21T06:26:09.573Z,29.8
2018-11-21T06:26:58.637Z,30
2018-11-21T06:27:47.625Z,30.3
2018-11-21T06:28:39.820Z,30.4
2018-11-21T06:29:27.815Z,30.6
2018-11-21T06:30:17.883Z,30.7
2018-11-21T06:31:09.143Z,30.9
2018-11-21T06:31:59.225Z,31
2018-11-21T06:32:50.120Z,31.1
2018-11-21T06:33:39.334Z,31.2
2018-11-21T06:34:34.675Z,31.3
2018-11-21T06:35:19.927Z,31.1
2018-11-21T06:36:11.618Z,31
2018-11-21T06:37:01.158Z,30.9
2018-11-21T06:37:50.972Z,30.8
2018-11-21T06:38:40.965Z,30.6
2018-11-21T06:39:30.790Z,30.5
2018-11-21T06:40:20.249Z,30.4
2018-11-21T06:41:10.880Z,30.2
2018-11-21T06:42:01.252Z,30.1
2018-11-21T06:42:50.124Z,29.9
2018-11-21T06:43:41.051Z,29.8
2018-11-21T06:44:31.679Z,29.7
2018-11-21T06:45:21.165Z,29.6
2018-11-21T06:46:11.016Z,29.4
2018-11-21T06:47:01.787Z,29.3
2018-11-21T06:47:50.014Z,29.2
2018-11-21T06:48:41.479Z,28.7
2018-11-21T06:49:31.741Z,27.7
2018-11-21T06:50:21.764Z,27.8
2018-11-21T06:51:12.317Z,27.7
2018-11-21T06:52:01.316Z,27.9
2018-11-21T06:52:52.553Z,28.2
2018-11-21T06:53:41.548Z,28.5
2018-11-21T06:54:30.423Z,28.8
2018-11-21T06:55:21.578Z,29
2018-11-21T06:56:12.283Z,29.3
2018-11-21T06:57:02.563Z,29.6
2018-11-21T06:57:50.894Z,29.8
2018-11-21T06:58:41.821Z,29.9
2018-11-21T06:59:32.436Z,30.1
2018-11-21T07:00:22.246Z,30.3
2018-11-21T07:01:12.913Z,30.4
2018-11-21T07:02:01.487Z,30.6
2018-11-21T07:02:52.649Z,30.8
2018-11-21T07:03:42.240Z,30.9
2018-11-21T07:04:32.240Z,31
2018-11-21T07:05:22.877Z,31.1
2018-11-21T07:06:12.912Z,31.2
2018-11-21T07:07:03.176Z,31.3
2018-11-21T07:07:52.995Z,31.2
2018-11-21T07:08:42.220Z,31.1
2018-11-21T07:09:32.317Z,30.9
2018-11-21T07:10:23.530Z,30.8
2018-11-21T07:11:12.400Z,30.6
2018-11-21T07:12:03.030Z,30.5
2018-11-21T07:12:53.327Z,30.4
2018-11-21T07:13:42.856Z,30.3
2018-11-21T07:14:32.879Z,30.1
2018-11-21T07:15:23.809Z,30
2018-11-21T07:16:13.872Z,29.1
2018-11-21T07:17:03.422Z,28.3
2018-11-21T07:18:43.260Z,27.6
2018-11-21T07:19:33.816Z,27.4
2018-11-21T07:20:23.341Z,27.2
2018-11-21T07:21:12.922Z,27.1
2018-11-21T07:22:03.454Z,26.9
2018-11-21T07:22:53.504Z,26.8
2018-11-21T07:23:44.892Z,26.8
2018-11-21T07:24:34.829Z,26.6
2018-11-21T07:25:23.762Z,26.5
2018-11-21T07:26:14.233Z,26.3
2018-11-21T07:27:03.459Z,26.4
2018-11-21T07:27:54.041Z,26.7
2018-11-21T07:28:44.138Z,26.9
2018-11-21T07:29:42.379Z,27.3
2018-11-21T07:30:23.983Z,27.7
2018-11-21T07:31:14.078Z,28
2018-11-21T07:32:04.927Z,28.3
2018-11-21T07:32:54.484Z,28.6
2018-11-21T07:33:51.001Z,28.9
2018-11-21T07:34:34.867Z,29.2
2018-11-21T07:35:27.363Z,29.4
2018-11-21T07:36:14.416Z,29.6
2018-11-21T07:37:04.451Z,29.8
2018-11-21T07:37:54.835Z,29.9
2018-11-21T07:38:44.893Z,29.8
2018-11-21T07:39:34.669Z,29.4
2018-11-21T07:40:23.422Z,28.9
2018-11-21T07:41:15.605Z,28.3
2018-11-21T07:42:04.881Z,27.7
2018-11-21T07:42:54.888Z,27.1
2018-11-21T07:43:45.298Z,26.5
2018-11-21T07:44:35.285Z,25.9
2018-11-21T07:45:26.682Z,25.4
2018-11-21T07:46:15.368Z,24.8
2018-11-21T07:47:05.761Z,24.2
2018-11-21T07:47:55.544Z,23.7
2018-11-21T07:48:45.598Z,23.6
2018-11-21T07:49:35.663Z,23.8
2018-11-21T07:50:25.427Z,24.6
2018-11-21T07:51:15.202Z,25.6
2018-11-21T07:52:05.867Z,26.1
2018-11-21T07:52:55.632Z,26.6
2018-11-21T07:53:46.465Z,27
2018-11-21T07:54:35.979Z,27.4
2018-11-21T07:56:15.237Z,28.2
2018-11-21T07:57:06.148Z,28.6
2018-11-21T07:57:56.184Z,28.9
2018-11-21T07:58:46.238Z,29.2
2018-11-21T07:59:36.281Z,29.4
2018-11-21T08:00:26.185Z,29.7
2018-11-21T08:01:16.448Z,29.9
2018-11-21T08:02:06.023Z,30.2
2018-11-21T08:02:56.295Z,30.4
2018-11-21T08:03:45.767Z,30.6
2018-11-21T08:04:36.420Z,30.8
2018-11-21T08:05:26.446Z,30.9
2018-11-21T08:06:15.933Z,31
2018-11-21T08:07:06.842Z,31.2
2018-11-21T08:07:56.900Z,31.3
2018-11-21T08:08:46.435Z,31.1
2018-11-21T08:09:37.005Z,31.1
2018-11-21T08:10:27.388Z,30.9
2018-11-21T08:11:17.684Z,30.8
2018-11-21T08:12:06.620Z,30.6
2018-11-21T08:12:56.858Z,30.5
2018-11-21T08:13:47.380Z,30.4
2018-11-21T08:14:36.582Z,30.3
2018-11-21T08:15:27.947Z,30.1
2018-11-21T08:16:16.684Z,30
2018-11-21T08:17:06.232Z,29.9
2018-11-21T08:17:57.094Z,29.7
2018-11-21T08:18:46.554Z,29.6
2018-11-21T08:19:37.347Z,29.4
2018-11-21T08:20:27.607Z,29.4
2018-11-21T08:21:17.349Z,28.1
2018-11-21T08:22:57.408Z,27.9
2018-11-21T08:24:37.073Z,28.1
2018-11-21T08:25:27.582Z,28.4
2018-11-21T08:26:17.716Z,28.7
2018-11-21T08:27:08.084Z,28.9
2018-11-21T08:27:57.001Z,29.2
2018-11-21T08:28:48.959Z,29.5
2018-11-21T08:29:38.260Z,29.8
2018-11-21T08:30:28.022Z,30
2018-11-21T08:31:18.601Z,30.2
2018-11-21T08:32:08.964Z,30.4
2018-11-21T08:32:57.876Z,30.6
2018-11-21T08:33:48.843Z,30.8
2018-11-21T08:34:37.953Z,30.9
2018-11-21T08:35:28.810Z,31
2018-11-21T08:36:17.786Z,31.2
2018-11-21T08:37:08.385Z,31.3
2018-11-21T08:37:58.990Z,31.3
2018-11-21T08:38:48.893Z,31.1
2018-11-21T08:39:38.655Z,31
2018-11-21T08:40:28.660Z,30.8
2018-11-21T08:41:19.257Z,30.7
2018-11-21T08:42:09.097Z,30.6
2018-11-21T09:08:48.677Z,30.3
2018-11-21T09:09:38.524Z,30.4
2018-11-21T09:11:18.596Z,30.7
2018-11-21T09:12:18.676Z,30.8
2018-11-21T09:12:58.683Z,31
2018-11-21T09:13:53.129Z,31.1
2018-11-21T09:14:38.528Z,31.2
2018-11-21T09:15:28.013Z,31.3
2018-11-21T09:16:18.680Z,31.3
2018-11-21T09:17:08.988Z,31.1
2018-11-21T09:17:58.716Z,31
2018-11-21T09:18:49.905Z,30.9
2018-11-21T09:19:39.164Z,30.7
2018-11-21T09:20:29.765Z,30.6
2018-11-21T09:21:19.295Z,30.4
2018-11-21T09:22:09.342Z,30.3
2018-11-21T09:22:59.123Z,30.2
2018-11-21T09:23:49.425Z,30.1
2018-11-21T09:24:39.778Z,29.9
2018-11-21T09:25:28.455Z,28.6
2018-11-21T09:26:19.570Z,28
2018-11-21T09:27:10.244Z,27.6
2018-11-21T09:27:58.522Z,27.4
2018-11-21T09:28:50.629Z,27.3
2018-11-21T09:29:40.409Z,27.1
2018-11-21T09:30:30.520Z,26.9
2018-11-21T09:31:20.204Z,26.8
2018-11-21T09:32:08.037Z,26.7
2018-11-21T09:32:58.976Z,26.6
2018-11-21T09:33:50.485Z,26.5
2018-11-21T09:34:40.454Z,26.4
2018-11-21T09:35:29.707Z,26.6
2018-11-21T09:36:19.774Z,26.8
2018-11-21T09:37:10.633Z,27.1
2018-11-21T09:38:00.664Z,27.5
2018-11-21T09:39:40.692Z,28.1
2018-11-21T09:40:29.747Z,28.4
2018-11-21T09:41:20.418Z,28.7
2018-11-21T09:42:10.427Z,28.9
2018-11-21T09:43:00.484Z,29.2
2018-11-21T09:43:51.305Z,29.4
2018-11-21T09:44:40.849Z,29.6
2018-11-21T09:45:31.208Z,29.8
2018-11-21T09:46:26.306Z,29.9
2018-11-21T09:47:10.808Z,30.1
2018-11-21T09:48:01.471Z,30.2
2018-11-21T09:48:51.409Z,30.3
2018-11-21T09:49:41.028Z,30.4
2018-11-21T09:50:32.459Z,30.6
2018-11-21T09:51:21.440Z,30.7
2018-11-21T09:52:11.429Z,30.8
2018-11-21T09:53:01.739Z,30.9
2018-11-21T09:53:49.638Z,30.9
2018-11-21T09:54:41.326Z,31.1
2018-11-21T09:55:31.151Z,31.1
2018-11-21T09:56:21.181Z,31.2
2018-11-21T09:57:11.319Z,31.3
2018-11-21T09:58:01.888Z,31.3
2018-11-21T09:58:51.136Z,31.1
2018-11-21T09:59:41.528Z,31
2018-11-21T10:00:31.146Z,30.9
2018-11-21T10:01:21.575Z,30.8
2018-11-21T10:02:11.890Z,30.6
2018-11-21T10:03:01.958Z,30.4
2018-11-21T10:03:51.958Z,30.3
2018-11-21T10:04:42.080Z,30.2
2018-11-21T10:05:32.625Z,30.1
2018-11-21T10:06:21.650Z,29.9
2018-11-21T10:07:11.942Z,29.8
2018-11-21T10:08:01.997Z,28.6
2018-11-21T10:08:52.144Z,27.9
2018-11-21T10:09:42.359Z,27.6
2018-11-21T10:10:32.994Z,27.3
2018-11-21T10:11:22.272Z,27.1
2018-11-21T10:12:12.574Z,27
2018-11-21T10:13:02.940Z,26.9
2018-11-21T10:13:52.449Z,26.8
2018-11-21T10:14:42.275Z,26.6
2018-11-21T10:15:32.902Z,26.5
2018-11-21T10:16:22.869Z,26.4
2018-11-21T10:17:12.668Z,26.5
2018-11-21T10:18:03.232Z,26.8
2018-11-21T10:18:52.505Z,27
2018-11-21T10:19:43.167Z,27.3
2018-11-21T10:20:33.501Z,27.7
2018-11-21T10:21:23.249Z,27.9
2018-11-21T10:22:12.984Z,28.3
2018-11-21T10:23:02.475Z,28.6
2018-11-21T10:23:53.656Z,28.8
2018-11-21T10:24:43.693Z,29.1
2018-11-21T10:25:33.154Z,29.3
2018-11-21T10:26:23.804Z,29.4
2018-11-21T10:27:13.343Z,29.6
2018-11-21T10:28:03.651Z,29.8
2018-11-21T10:28:53.449Z,29.9
2018-11-21T10:29:44.290Z,30.1
2018-11-21T10:30:34.343Z,30.2
2018-11-21T10:31:23.068Z,30.3
2018-11-21T10:32:13.912Z,30.3
2018-11-21T10:33:04.226Z,30.4
2018-11-21T10:33:54.036Z,30.5
2018-11-21T10:34:43.773Z,30.6
2018-11-21T10:35:39.353Z,30.7
2018-11-21T10:36:23.578Z,30.8
2018-11-21T10:37:14.200Z,30.8
2018-11-21T10:38:04.126Z,30.9
2018-11-21T10:38:54.402Z,31
2018-11-21T10:39:44.778Z,31
2018-11-21T10:40:34.555Z,31.1
2018-11-21T10:41:25.586Z,31.1
2018-11-21T10:42:14.918Z,31.2
2018-11-21T10:43:04.957Z,31.1
2018-11-21T10:43:54.407Z,30.8
2018-11-21T10:44:44.780Z,30.3
2018-11-21T10:45:35.607Z,29.8
2018-11-21T10:46:24.595Z,29
2018-11-21T10:47:14.902Z,28.1
2018-11-21T10:48:04.701Z,27.2
2018-11-21T10:48:54.494Z,26.4
2018-11-21T10:49:45.662Z,25.8
2018-11-21T10:50:35.801Z,25.7
2018-11-21T10:51:25.555Z,26.1
2018-11-21T10:52:15.286Z,26.6
2018-11-21T10:53:05.622Z,27.1
2018-11-21T10:53:55.182Z,27.6
2018-11-21T10:54:45.432Z,27.9
2018-11-21T10:55:35.697Z,28.3
2018-11-21T10:56:25.259Z,28.6
2018-11-21T10:57:15.639Z,28.9
2018-11-21T10:58:05.747Z,29.3
2018-11-21T10:58:55.724Z,29.5
2018-11-21T10:59:45.528Z,29.8
2018-11-21T11:00:35.985Z,30
2018-11-21T11:01:25.448Z,30.2
2018-11-21T11:02:16.272Z,30.4
2018-11-21T11:03:06.883Z,30.6
2018-11-21T11:03:57.903Z,30.7
2018-11-21T11:04:46.728Z,30.9
2018-11-21T11:05:35.401Z,31
2018-11-21T11:06:25.695Z,31.1
2018-11-21T11:07:16.328Z,31.3
2018-11-21T11:08:06.396Z,31.2
2018-11-21T11:08:56.417Z,31.1
2018-11-21T11:09:46.855Z,30.9
2018-11-21T11:10:37.431Z,30.8
2018-11-21T11:11:26.616Z,30.6
2018-11-21T11:12:17.028Z,30.5
2018-11-21T11:13:06.156Z,30.4
2018-11-21T11:13:57.355Z,30.3
2018-11-21T11:14:47.360Z,30.1
2018-11-21T11:15:37.700Z,29.9
2018-11-21T11:16:27.503Z,29.8
2018-11-21T11:17:17.845Z,29.3
2018-11-21T11:18:08.868Z,28.3
2018-11-21T11:18:57.948Z,27.7
2018-11-21T11:19:47.711Z,27.4
2018-11-21T11:20:37.767Z,27.2
2018-11-21T11:21:28.170Z,27.1
2018-11-21T11:22:17.405Z,26.9
2018-11-21T11:23:07.702Z,26.8
2018-11-21T11:23:57.478Z,26.7
2018-11-21T11:24:48.088Z,26.6
2018-11-21T11:25:37.302Z,26.4
2018-11-21T11:26:28.807Z,26.6
2018-11-21T11:27:17.748Z,26.9
2018-11-21T11:28:08.402Z,27.2
2018-11-21T11:28:58.105Z,27.6
2018-11-21T11:29:45.824Z,27.9
2018-11-21T11:30:37.016Z,28.2
2018-11-21T11:31:27.194Z,28.5
2018-11-21T11:32:18.644Z,28.8
2018-11-21T11:33:06.704Z,29.1
2018-11-21T11:33:55.739Z,29.3
2018-11-21T11:34:46.056Z,29.5
2018-11-21T11:35:37.111Z,29.7
2018-11-21T11:36:27.524Z,29.9
2018-11-21T11:37:16.511Z,30.1
2018-11-21T11:38:06.771Z,30.3
2018-11-21T11:38:56.897Z,30.4
2018-11-21T11:39:47.819Z,30.5
2018-11-21T11:40:37.789Z,30.6
2018-11-21T11:41:28.284Z,30.8
2018-11-21T11:42:17.471Z,30.9
2018-11-21T11:43:07.837Z,30.9
2018-11-21T11:43:57.504Z,31.1
2018-11-21T11:44:47.436Z,31.1
2018-11-21T11:45:38.179Z,31.3
2018-11-21T11:46:28.138Z,31.2
2018-11-21T11:47:18.756Z,31.1
2018-11-21T11:48:07.345Z,30.9
2018-11-21T11:48:57.063Z,30.8
2018-11-21T11:49:47.810Z,30.7
2018-11-21T11:50:38.038Z,30.6
2018-11-21T11:51:27.626Z,30.4
2018-11-21T11:52:18.173Z,30.3
2018-11-21T11:53:08.023Z,30.1
2018-11-21T11:53:57.473Z,30
2018-11-21T11:54:47.890Z,29.9
2018-11-21T11:55:38.392Z,29.7
2018-11-21T11:56:28.888Z,28.4
2018-11-21T11:58:09.751Z,27.5
2018-11-21T11:58:58.500Z,27.3
2018-11-21T11:59:49.007Z,27.1
2018-11-21T12:00:38.547Z,27
2018-11-21T12:01:29.315Z,26.8
2018-11-21T12:02:20.508Z,26.7
2018-11-21T12:03:08.815Z,26.6
2018-11-21T12:04:05.303Z,26.4
2018-11-21T12:04:48.794Z,26.6
2018-11-21T12:05:37.672Z,26.9
2018-11-21T12:06:29.172Z,27
2018-11-21T12:07:19.026Z,27.3
2018-11-21T12:08:10.901Z,27.7
2018-11-21T12:09:00.742Z,28
2018-11-21T12:09:49.567Z,28.3
2018-11-21T12:10:39.232Z,28.6
2018-11-21T12:11:29.659Z,28.8
2018-11-21T12:12:21.878Z,29.1
2018-11-21T12:13:09.351Z,29.3
2018-11-21T12:14:01.007Z,29.5
2018-11-21T12:14:49.795Z,29.6
2018-11-21T12:15:40.418Z,29.8
2018-11-21T12:16:30.064Z,30
2018-11-21T12:17:19.754Z,30.1
2018-11-21T12:18:09.688Z,30.3
2018-11-21T12:19:03.256Z,30.3
2018-11-21T12:19:49.734Z,30.5
2018-11-21T12:20:40.161Z,30.6
2018-11-21T12:21:29.412Z,30.7